Time,TemperatureF,DewpointF,PressureIn,WindDirection,WindDirectionDegrees,WindSpeedMPH,WindSpeedGustMPH,Humidity,HourlyPrecipIn,Conditions,Clouds,dailyrainin,SoftwareType,DateUTC
2013-04-19 00:01:00,53.0,48.6,30.17,South,179,6.0,9.0,85,0.00,,,0.00,LWC V2.10 B1702,2013-04-19 04:01:00,
2013-04-19 00:06:00,53.1,48.7,30.17,SSW,207,2.0,10.0,85,0.00,,,0.00,LWC V2.10 B1702,2013-04-19 04:06:00,
2013-04-19 00:11:00,53.2,48.8,30.17,SSW,207,4.0,7.0,85,0.00,,,0.00,LWC V2.10 B1702,2013-04-19 04:11:00,
2013-04-19 00:16:00,53.3,48.9,30.17,WSW,239,3.0,8.0,85,0.00,,,0.00,LWC V2.10 B1702,2013-04-19 04:16:00,
2013-04-19 00:21:00,53.4,49.0,30.16,SSW,209,5.0,7.0,85,0.00,,,0.00,LWC V2.10 B1702,2013-04-19 04:21:00,
2013-04-19 00:26:00,53.5,49.1,30.16,SSW,202,2.0,5.0,85,0.00,,,0.00,LWC V2.10 B1702,2013-04-19 04:26:00,
2013-04-19 00:31:00,53.6,49.2,30.16,SSW,213,3.0,6.0,85,0.00,,,0.00,LWC V2.10 B1702,2013-04-19 04:31:00,
2013-04-19 00:36:00,53.7,49.6,30.16,SSW,198,3.0,5.0,86,0.00,,,0.00,LWC V2.10 B1702,2013-04-19 04:36:00,
2013-04-19 00:41:00,53.9,49.8,30.16,SW,229,1.0,10.0,86,0.00,,,0.00,LWC V2.10 B1702,2013-04-19 04:41:00,
2013-04-19 00:46:00,54.0,49.9,30.16,West,261,5.0,7.0,86,0.00,,,0.00,LWC V2.10 B1702,2013-04-19 04:46:00,
2013-04-19 00:51:00,54.1,50.3,30.15,WSW,239,0.0,4.0,87,0.00,,,0.00,LWC V2.10 B1702,2013-04-19 04:51:00,
2013-04-19 00:56:00,54.2,50.4,30.15,SW,229,1.0,3.0,87,0.00,,,0.00,LWC V2.10 B1702,2013-04-19 04:56:00,
2013-04-19 01:01:00,54.4,50.6,30.15,South,182,2.0,6.0,87,0.00,,,0.00,LWC V2.10 B1702,2013-04-19 05:01:00,
2013-04-19 01:06:00,54.6,51.1,30.15,South,186,6.0,6.0,88,0.00,,,0.00,LWC V2.10 B1702,2013-04-19 05:06:00,
2013-04-19 01:11:00,54.8,51.3,30.14,SSW,209,3.0,11.0,88,0.00,,,0.00,LWC V2.10 B1702,2013-04-19 05:11:00,
2013-04-19 01:16:00,55.0,51.8,30.14,SE,141,2.0,9.0,89,0.00,,,0.00,LWC V2.10 B1702,2013-04-19 05:16:00,
2013-04-19 01:21:00,55.2,52.0,30.14,SSE,161,2.0,8.0,89,0.00,,,0.00,LWC V2.10 B1702,2013-04-19 05:21:00,
2013-04-19 01:26:00,55.4,52.2,30.14,South,175,4.0,7.0,89,0.00,,,0.00,LWC V2.10 B1702,2013-04-19 05:26:00,
2013-04-19 01:31:00,55.5,52.3,30.13,South,187,6.0,8.0,89,0.00,,,0.00,LWC V2.10 B1702,2013-04-19 05:31:00,
2013-04-19 01:36:00,55.7,52.5,30.13,SW,230,5.0,10.0,89,0.00,,,0.00,LWC V2.10 B1702,2013-04-19 05:36:00,
2013-04-19 01:41:00,55.8,52.6,30.13,West,267,4.0,10.0,89,0.00,,,0.00,LWC V2.10 B1702,2013-04-19 05:41:00,
2013-04-19 01:46:00,55.9,53.0,30.12,SW,227,4.0,7.0,90,0.00,,,0.00,LWC V2.10 B1702,2013-04-19 05:46:00,
2013-04-19 01:51:00,55.9,53.0,30.12,West,265,5.0,11.0,90,0.00,,,0.00,LWC V2.10 B1702,2013-04-19 05:51:00,
2013-04-19 01:56:00,55.9,53.0,30.12,SSE,150,14.0,14.0,90,0.00,,,0.00,LWC V2.10 B1702,2013-04-19 05:56:00,
2013-04-19 02:01:00,56.0,53.1,30.11,WSW,244,6.0,9.0,90,0.00,,,0.00,LWC V2.10 B1702,2013-04-19 06:01:00,
2013-04-19 02:06:00,56.0,53.1,30.11,SSW,205,6.0,7.0,90,0.00,,,0.00,LWC V2.10 B1702,2013-04-19 06:06:00,
2013-04-19 02:11:00,55.9,53.0,30.11,SW,234,2.0,5.0,90,0.00,,,0.00,LWC V2.10 B1702,2013-04-19 06:11:00,
2013-04-19 02:16:00,55.9,53.3,30.11,South,186,4.0,10.0,91,0.00,,,0.00,LWC V2.10 B1702,2013-04-19 06:16:00,
2013-04-19 02:21:00,56.0,53.4,30.10,SSW,204,4.0,9.0,91,0.00,,,0.00,LWC V2.10 B1702,2013-04-19 06:21:00,
2013-04-19 02:26:00,56.0,53.4,30.10,SW,229,4.0,10.0,91,0.00,,,0.00,LWC V2.10 B1702,2013-04-19 06:26:00,
2013-04-19 02:31:00,55.9,53.3,30.10,SSW,198,3.0,6.0,91,0.00,,,0.00,LWC V2.10 B1702,2013-04-19 06:31:00,
2013-04-19 02:36:00,55.9,53.3,30.10,NW,316,3.0,8.0,91,0.00,,,0.00,LWC V2.10 B1702,2013-04-19 06:36:00,
2013-04-19 02:41:00,55.9,53.3,30.10,South,181,1.0,6.0,91,0.00,,,0.00,LWC V2.10 B1702,2013-04-19 06:41:00,
2013-04-19 02:46:00,56.0,53.4,30.10,SSW,195,1.0,5.0,91,0.00,,,0.00,LWC V2.10 B1702,2013-04-19 06:46:00,
2013-04-19 02:51:00,56.0,53.4,30.10,SW,226,3.0,8.0,91,0.00,,,0.00,LWC V2.10 B1702,2013-04-19 06:51:00,
2013-04-19 02:56:00,56.1,53.5,30.09,West,267,3.0,7.0,91,0.00,,,0.00,LWC V2.10 B1702,2013-04-19 06:56:00,
2013-04-19 03:01:00,56.2,53.6,30.09,SSW,212,4.0,4.0,91,0.00,,,0.00,LWC V2.10 B1702,2013-04-19 07:01:00,
2013-04-19 03:06:00,56.2,53.9,30.09,SW,235,7.0,9.0,92,0.00,,,0.00,LWC V2.10 B1702,2013-04-19 07:06:00,
2013-04-19 03:11:00,56.4,54.1,30.09,SW,221,3.0,8.0,92,0.00,,,0.00,LWC V2.10 B1702,2013-04-19 07:11:00,
2013-04-19 03:16:00,56.5,54.2,30.09,SSW,192,5.0,6.0,92,0.00,,,0.00,LWC V2.10 B1702,2013-04-19 07:16:00,
2013-04-19 03:21:00,56.6,54.3,30.08,South,173,6.0,10.0,92,0.00,,,0.00,LWC V2.10 B1702,2013-04-19 07:21:00,
2013-04-19 03:26:00,56.7,54.4,30.08,SW,232,2.0,7.0,92,0.00,,,0.00,LWC V2.10 B1702,2013-04-19 07:26:00,
2013-04-19 03:31:00,56.8,54.5,30.08,WSW,257,8.0,8.0,92,0.00,,,0.00,LWC V2.10 B1702,2013-04-19 07:31:00,
2013-04-19 03:36:00,56.8,54.2,30.08,SSW,204,4.0,9.0,91,0.00,,,0.00,LWC V2.10 B1702,2013-04-19 07:36:00,
2013-04-19 03:41:00,56.9,54.3,30.08,South,186,6.0,8.0,91,0.00,,,0.00,LWC V2.10 B1702,2013-04-19 07:41:00,
2013-04-19 03:46:00,56.9,54.3,30.07,SW,224,5.0,6.0,91,0.00,,,0.00,LWC V2.10 B1702,2013-04-19 07:46:00,
2013-04-19 03:51:00,57.0,54.4,30.08,SW,234,7.0,10.0,91,0.00,,,0.00,LWC V2.10 B1702,2013-04-19 07:51:00,
2013-04-19 03:56:00,57.0,54.4,30.08,WSW,248,1.0,8.0,91,0.00,,,0.00,LWC V2.10 B1702,2013-04-19 07:56:00,
2013-04-19 04:01:00,57.1,54.5,30.07,SSW,207,4.0,11.0,91,0.00,,,0.00,LWC V2.10 B1702,2013-04-19 08:01:00,
2013-04-19 04:06:00,57.1,54.5,30.07,SW,234,1.0,4.0,91,0.00,,,0.00,LWC V2.10 B1702,2013-04-19 08:06:00,
2013-04-19 04:11:00,57.2,54.6,30.07,South,188,5.0,5.0,91,0.00,,,0.00,LWC V2.10 B1702,2013-04-19 08:11:00,
2013-04-19 04:16:00,57.3,54.7,30.07,SW,232,3.0,7.0,91,0.00,,,0.00,LWC V2.10 B1702,2013-04-19 08:16:00,
2013-04-19 04:21:00,57.4,54.8,30.07,SSW,206,3.0,10.0,91,0.00,,,0.00,LWC V2.10 B1702,2013-04-19 08:21:00,
2013-04-19 04:26:00,57.5,54.9,30.07,South,188,3.0,4.0,91,0.00,,,0.00,LWC V2.10 B1702,2013-04-19 08:26:00,
2013-04-19 04:31:00,57.5,54.9,30.07,SSW,198,5.0,6.0,91,0.00,,,0.00,LWC V2.10 B1702,2013-04-19 08:31:00,
2013-04-19 04:36:00,57.5,54.9,30.07,SSW,196,3.0,7.0,91,0.00,,,0.00,LWC V2.10 B1702,2013-04-19 08:36:00,
2013-04-19 04:41:00,57.4,54.8,30.07,SE,144,2.0,7.0,91,0.00,,,0.00,LWC V2.10 B1702,2013-04-19 08:41:00,
2013-04-19 04:46:00,57.3,54.7,30.06,SSW,205,2.0,4.0,91,0.00,,,0.00,LWC V2.10 B1702,2013-04-19 08:46:00,
2013-04-19 04:51:00,57.5,54.9,30.06,SSW,205,4.0,7.0,91,0.00,,,0.00,LWC V2.10 B1702,2013-04-19 08:51:00,
2013-04-19 04:56:00,57.5,54.9,30.06,SE,142,1.0,2.0,91,0.00,,,0.00,LWC V2.10 B1702,2013-04-19 08:56:00,
2013-04-19 05:01:00,57.6,55.0,30.06,SW,221,3.0,8.0,91,0.00,,,0.00,LWC V2.10 B1702,2013-04-19 09:01:00,
2013-04-19 05:06:00,57.7,55.1,30.06,WSW,240,3.0,7.0,91,0.00,,,0.00,LWC V2.10 B1702,2013-04-19 09:06:00,
2013-04-19 05:11:00,57.8,55.2,30.06,SSW,196,3.0,6.0,91,0.00,,,0.00,LWC V2.10 B1702,2013-04-19 09:11:00,
2013-04-19 05:16:00,57.8,55.2,30.06,SW,220,4.0,5.0,91,0.00,,,0.00,LWC V2.10 B1702,2013-04-19 09:16:00,
2013-04-19 05:21:00,57.8,55.2,30.06,SW,230,1.0,7.0,91,0.00,,,0.00,LWC V2.10 B1702,2013-04-19 09:21:00,
2013-04-19 05:26:00,57.8,55.2,30.06,SW,219,5.0,6.0,91,0.00,,,0.00,LWC V2.10 B1702,2013-04-19 09:26:00,
2013-04-19 05:31:00,57.8,55.2,30.05,WSW,250,2.0,6.0,91,0.00,,,0.00,LWC V2.10 B1702,2013-04-19 09:31:00,
2013-04-19 05:36:00,57.8,55.2,30.05,SW,216,2.0,7.0,91,0.00,,,0.00,LWC V2.10 B1702,2013-04-19 09:36:00,
2013-04-19 05:41:00,57.9,55.3,30.05,SSW,194,4.0,6.0,91,0.00,,,0.00,LWC V2.10 B1702,2013-04-19 09:41:00,
2013-04-19 05:46:00,58.1,55.5,30.05,South,177,2.0,5.0,91,0.00,,,0.00,LWC V2.10 B1702,2013-04-19 09:46:00,
2013-04-19 05:51:00,58.4,55.8,30.05,SW,231,7.0,11.0,91,0.00,,,0.00,LWC V2.10 B1702,2013-04-19 09:51:00,
2013-04-19 05:56:00,58.5,55.9,30.05,SSW,194,5.0,7.0,91,0.00,,,0.00,LWC V2.10 B1702,2013-04-19 09:56:00,
2013-04-19 06:01:00,58.6,56.0,30.06,SW,214,7.0,8.0,91,0.00,,,0.00,LWC V2.10 B1702,2013-04-19 10:01:00,
2013-04-19 06:06:00,58.8,56.2,30.06,SSW,209,4.0,4.0,91,0.00,,,0.00,LWC V2.10 B1702,2013-04-19 10:06:00,
2013-04-19 06:11:00,58.9,56.3,30.06,WSW,238,6.0,7.0,91,0.00,,,0.00,LWC V2.10 B1702,2013-04-19 10:11:00,
2013-04-19 06:16:00,59.1,56.5,30.06,SSW,203,8.0,8.0,91,0.00,,,0.00,LWC V2.10 B1702,2013-04-19 10:16:00,
2013-04-19 06:21:00,59.3,56.7,30.06,SSW,213,7.0,15.0,91,0.00,,,0.00,LWC V2.10 B1702,2013-04-19 10:21:00,
2013-04-19 06:26:00,59.5,56.9,30.06,West,279,3.0,7.0,91,0.00,,,0.00,LWC V2.10 B1702,2013-04-19 10:26:00,
2013-04-19 06:31:00,59.7,57.1,30.06,SSW,196,2.0,9.0,91,0.00,,,0.00,LWC V2.10 B1702,2013-04-19 10:31:00,
2013-04-19 06:36:00,59.9,57.3,30.06,SSW,211,5.0,9.0,91,0.00,,,0.00,LWC V2.10 B1702,2013-04-19 10:36:00,
2013-04-19 06:41:00,60.1,57.5,30.06,SW,230,4.0,12.0,91,0.00,,,0.00,LWC V2.10 B1702,2013-04-19 10:41:00,
2013-04-19 06:46:00,60.2,57.6,30.05,SW,229,13.0,13.0,91,0.00,,,0.00,LWC V2.10 B1702,2013-04-19 10:46:00,
2013-04-19 06:51:00,60.5,57.9,30.05,SW,236,3.0,9.0,91,0.00,,,0.00,LWC V2.10 B1702,2013-04-19 10:51:00,
2013-04-19 06:56:00,60.7,58.1,30.05,SW,229,3.0,8.0,91,0.00,,,0.00,LWC V2.10 B1702,2013-04-19 10:56:00,
2013-04-19 07:01:00,60.9,58.3,30.05,South,188,5.0,7.0,91,0.00,,,0.00,LWC V2.10 B1702,2013-04-19 11:01:00,
2013-04-19 07:06:00,61.0,58.3,30.04,SSW,206,5.0,6.0,91,0.00,,,0.00,LWC V2.10 B1702,2013-04-19 11:06:00,
2013-04-19 07:11:00,61.1,58.4,30.04,SSW,213,2.0,9.0,91,0.00,,,0.00,LWC V2.10 B1702,2013-04-19 11:11:00,
2013-04-19 07:16:00,61.2,58.2,30.04,SW,230,3.0,7.0,90,0.00,,,0.00,LWC V2.10 B1702,2013-04-19 11:16:00,
2013-04-19 07:21:00,61.2,58.2,30.04,SSW,205,2.0,5.0,90,0.00,,,0.00,LWC V2.10 B1702,2013-04-19 11:21:00,
2013-04-19 07:26:00,61.3,58.3,30.04,WSW,238,2.0,4.0,90,0.00,,,0.00,LWC V2.10 B1702,2013-04-19 11:26:00,
2013-04-19 07:31:00,61.3,58.3,30.04,South,190,5.0,8.0,90,0.00,,,0.00,LWC V2.10 B1702,2013-04-19 11:31:00,
2013-04-19 07:38:00,61.3,58.0,30.04,SW,216,3.0,9.0,89,0.00,,,0.00,LWC V2.10 B1702,2013-04-19 11:38:00,
2013-04-19 07:44:00,61.2,57.9,30.04,WSW,248,5.0,8.0,89,0.00,,,0.00,LWC V2.10 B1702,2013-04-19 11:44:00,
2013-04-19 07:49:00,61.1,57.8,30.05,WSW,248,6.0,7.0,89,0.00,,,0.00,LWC V2.10 B1702,2013-04-19 11:49:00,
2013-04-19 07:54:00,61.0,57.7,30.04,WSW,238,4.0,6.0,89,0.00,,,0.00,LWC V2.10 B1702,2013-04-19 11:54:00,
2013-04-19 07:59:00,61.1,58.1,30.04,WSW,246,5.0,6.0,90,0.00,,,0.00,LWC V2.10 B1702,2013-04-19 11:59:00,
2013-04-19 08:04:00,61.1,58.1,30.04,SW,228,4.0,6.0,90,0.00,,,0.00,LWC V2.10 B1702,2013-04-19 12:04:00,
2013-04-19 08:09:00,60.8,57.5,30.04,SW,220,4.0,9.0,89,0.00,,,0.00,LWC V2.10 B1702,2013-04-19 12:09:00,
2013-04-19 08:14:00,60.4,57.1,30.04,West,270,2.0,4.0,89,0.00,,,0.00,LWC V2.10 B1702,2013-04-19 12:14:00,
2013-04-19 08:19:00,60.1,56.8,30.03,WSW,239,3.0,8.0,89,0.00,,,0.00,LWC V2.10 B1702,2013-04-19 12:19:00,
2013-04-19 08:24:00,60.0,57.1,30.03,SSW,209,0.0,5.0,90,0.00,,,0.00,LWC V2.10 B1702,2013-04-19 12:24:00,
2013-04-19 08:29:00,60.1,57.5,30.03,SW,225,0.0,5.0,91,0.00,,,0.00,LWC V2.10 B1702,2013-04-19 12:29:00,
2013-04-19 08:34:00,60.5,57.9,30.03,WSW,246,6.0,10.0,91,0.00,,,0.00,LWC V2.10 B1702,2013-04-19 12:34:00,
2013-04-19 08:39:00,61.0,58.3,30.03,WSW,252,5.0,6.0,91,0.00,,,0.00,LWC V2.10 B1702,2013-04-19 12:39:00,
2013-04-19 08:44:00,61.1,58.4,30.03,SW,228,8.0,8.0,91,0.00,,,0.00,LWC V2.10 B1702,2013-04-19 12:44:00,
2013-04-19 08:49:00,60.9,57.9,30.03,WSW,242,4.0,6.0,90,0.00,,,0.00,LWC V2.10 B1702,2013-04-19 12:49:00,
2013-04-19 08:54:00,60.9,57.9,30.03,SW,222,6.0,7.0,90,0.00,,,0.00,LWC V2.10 B1702,2013-04-19 12:54:00,
2013-04-19 08:59:00,60.8,57.8,30.03,SSW,212,3.0,8.0,90,0.00,,,0.00,LWC V2.10 B1702,2013-04-19 12:59:00,
2013-04-19 09:04:00,60.6,57.6,30.03,SW,223,7.0,11.0,90,0.00,,,0.00,LWC V2.10 B1702,2013-04-19 13:04:00,
2013-04-19 09:09:00,60.3,57.4,30.03,SW,229,4.0,7.0,90,0.00,,,0.00,LWC V2.10 B1702,2013-04-19 13:09:00,
2013-04-19 09:14:00,60.0,57.1,30.03,SW,236,5.0,9.0,90,0.00,,,0.00,LWC V2.10 B1702,2013-04-19 13:14:00,
2013-04-19 09:19:00,59.6,56.7,30.03,WSW,244,4.0,11.0,90,0.00,,,0.00,LWC V2.10 B1702,2013-04-19 13:19:00,
2013-04-19 09:24:00,59.3,56.4,30.03,SW,223,8.0,11.0,90,0.00,,,0.00,LWC V2.10 B1702,2013-04-19 13:24:00,
2013-04-19 09:29:00,59.2,56.6,30.03,SW,226,7.0,11.0,91,0.00,,,0.00,LWC V2.10 B1702,2013-04-19 13:29:00,
2013-04-19 09:34:00,59.2,56.6,30.02,SW,227,5.0,9.0,91,0.00,,,0.00,LWC V2.10 B1702,2013-04-19 13:34:00,
2013-04-19 09:39:00,59.5,56.9,30.02,SSE,162,8.0,9.0,91,0.00,,,0.00,LWC V2.10 B1702,2013-04-19 13:39:00,
2013-04-19 09:44:00,59.6,57.3,30.02,SSW,195,6.0,9.0,92,0.00,,,0.00,LWC V2.10 B1702,2013-04-19 13:44:00,
2013-04-19 09:49:00,59.6,57.3,30.02,SSW,211,7.0,9.0,92,0.00,,,0.00,LWC V2.10 B1702,2013-04-19 13:49:00,
2013-04-19 09:54:00,59.8,57.2,30.02,SW,234,2.0,10.0,91,0.00,,,0.00,LWC V2.10 B1702,2013-04-19 13:54:00,
2013-04-19 09:59:00,60.0,57.4,30.02,WSW,244,10.0,10.0,91,0.00,,,0.00,LWC V2.10 B1702,2013-04-19 13:59:00,
2013-04-19 10:04:00,60.1,57.5,30.02,SSW,211,7.0,7.0,91,0.00,,,0.00,LWC V2.10 B1702,2013-04-19 14:04:00,
2013-04-19 10:09:00,60.5,57.9,30.01,SSW,206,8.0,11.0,91,0.00,,,0.00,LWC V2.10 B1702,2013-04-19 14:09:00,
2013-04-19 10:14:00,60.9,58.3,30.01,SSW,192,7.0,7.0,91,0.00,,,0.00,LWC V2.10 B1702,2013-04-19 14:14:00,
2013-04-19 10:19:00,61.2,58.5,30.01,West,275,5.0,6.0,91,0.00,,,0.00,LWC V2.10 B1702,2013-04-19 14:19:00,
2013-04-19 10:24:00,61.4,58.4,30.01,WNW,290,6.0,12.0,90,0.00,,,0.00,LWC V2.10 B1702,2013-04-19 14:24:00,
2013-04-19 10:29:00,61.6,58.6,30.01,SSW,205,9.0,10.0,90,0.00,,,0.00,LWC V2.10 B1702,2013-04-19 14:29:00,
2013-04-19 10:34:00,62.2,59.2,30.01,SSW,212,7.0,15.0,90,0.00,,,0.00,LWC V2.10 B1702,2013-04-19 14:34:00,
2013-04-19 10:39:00,62.9,59.6,30.01,SW,221,4.0,9.0,89,0.00,,,0.00,LWC V2.10 B1702,2013-04-19 14:39:00,
2013-04-19 10:44:00,63.8,59.9,30.01,WSW,240,8.0,11.0,87,0.00,,,0.00,LWC V2.10 B1702,2013-04-19 14:44:00,
2013-04-19 10:49:00,64.3,60.0,30.01,SSW,211,6.0,7.0,86,0.00,,,0.00,LWC V2.10 B1702,2013-04-19 14:49:00,
2013-04-19 10:54:00,64.9,60.3,30.00,SSW,200,5.0,9.0,85,0.00,,,0.00,LWC V2.10 B1702,2013-04-19 14:54:00,
2013-04-19 10:59:00,65.0,60.0,30.00,SW,233,6.0,10.0,84,0.00,,,0.00,LWC V2.10 B1702,2013-04-19 14:59:00,
2013-04-19 11:04:00,64.9,60.3,30.00,WSW,253,2.0,8.0,85,0.00,,,0.00,LWC V2.10 B1702,2013-04-19 15:04:00,
2013-04-19 11:09:00,64.9,60.3,30.00,SW,222,4.0,6.0,85,0.00,,,0.00,LWC V2.10 B1702,2013-04-19 15:09:00,
2013-04-19 11:14:00,64.9,60.3,30.00,WSW,243,6.0,7.0,85,0.00,,,0.00,LWC V2.10 B1702,2013-04-19 15:14:00,
2013-04-19 11:19:00,64.7,59.7,30.00,SW,220,5.0,12.0,84,0.00,,,0.00,LWC V2.10 B1702,2013-04-19 15:19:00,
2013-04-19 11:24:00,64.6,59.7,30.00,West,266,5.0,8.0,84,0.00,,,0.00,LWC V2.10 B1702,2013-04-19 15:24:00,
2013-04-19 11:29:00,64.7,59.7,29.99,SW,236,6.0,11.0,84,0.00,,,0.00,LWC V2.10 B1702,2013-04-19 15:29:00,
2013-04-19 11:34:00,64.4,59.5,30.00,WSW,238,9.0,9.0,84,0.00,,,0.00,LWC V2.10 B1702,2013-04-19 15:34:00,
2013-04-19 11:39:00,63.7,58.8,29.99,WSW,238,5.0,13.0,84,0.00,,,0.00,LWC V2.10 B1702,2013-04-19 15:39:00,
2013-04-19 11:44:00,63.6,59.0,29.99,West,270,5.0,13.0,85,0.00,,,0.00,LWC V2.10 B1702,2013-04-19 15:44:00,
2013-04-19 11:49:00,63.7,59.1,29.99,West,273,5.0,11.0,85,0.00,,,0.00,LWC V2.10 B1702,2013-04-19 15:49:00,
2013-04-19 11:54:00,64.0,59.4,29.99,SSW,213,7.0,11.0,85,0.00,,,0.00,LWC V2.10 B1702,2013-04-19 15:54:00,
2013-04-19 11:59:00,64.5,59.9,29.99,WSW,246,6.0,10.0,85,0.00,,,0.00,LWC V2.10 B1702,2013-04-19 15:59:00,
2013-04-19 12:04:00,65.0,60.0,29.99,SW,232,7.0,8.0,84,0.00,,,0.00,LWC V2.10 B1702,2013-04-19 16:04:00,
2013-04-19 12:09:00,65.2,59.9,29.99,SW,217,5.0,11.0,83,0.00,,,0.00,LWC V2.10 B1702,2013-04-19 16:09:00,
2013-04-19 12:14:00,65.3,60.0,29.98,West,259,7.0,13.0,83,0.00,,,0.00,LWC V2.10 B1702,2013-04-19 16:14:00,
2013-04-19 12:19:00,65.1,59.5,29.98,SW,223,7.0,12.0,82,0.00,,,0.00,LWC V2.10 B1702,2013-04-19 16:19:00,
2013-04-19 12:24:00,64.8,59.2,29.98,South,190,4.0,15.0,82,0.00,,,0.00,LWC V2.10 B1702,2013-04-19 16:24:00,
2013-04-19 12:29:00,64.9,59.3,29.98,WSW,242,7.0,8.0,82,0.00,,,0.00,LWC V2.10 B1702,2013-04-19 16:29:00,
2013-04-19 12:34:00,65.0,59.4,29.97,WSW,251,5.0,5.0,82,0.00,,,0.00,LWC V2.10 B1702,2013-04-19 16:34:00,
2013-04-19 12:39:00,65.5,59.9,29.97,SW,220,7.0,11.0,82,0.00,,,0.00,LWC V2.10 B1702,2013-04-19 16:39:00,
2013-04-19 12:44:00,65.7,59.7,29.97,WSW,239,11.0,11.0,81,0.00,,,0.00,LWC V2.10 B1702,2013-04-19 16:44:00,
2013-04-19 12:49:00,65.8,59.8,29.97,WSW,254,9.0,14.0,81,0.00,,,0.00,LWC V2.10 B1702,2013-04-19 16:49:00,
2013-04-19 12:54:00,65.7,60.0,29.97,WNW,286,11.0,11.0,82,0.00,,,0.00,LWC V2.10 B1702,2013-04-19 16:54:00,
2013-04-19 12:59:00,65.6,59.6,29.96,West,272,9.0,14.0,81,0.00,,,0.00,LWC V2.10 B1702,2013-04-19 16:59:00,
2013-04-19 13:04:00,66.0,60.3,29.96,West,267,5.0,8.0,82,0.00,,,0.00,LWC V2.10 B1702,2013-04-19 17:04:00,
2013-04-19 13:09:00,67.0,61.0,29.96,WSW,243,9.0,10.0,81,0.00,,,0.00,LWC V2.10 B1702,2013-04-19 17:09:00,
2013-04-19 13:14:00,67.2,60.8,29.96,WSW,243,3.0,13.0,80,0.00,,,0.00,LWC V2.10 B1702,2013-04-19 17:14:00,
2013-04-19 13:19:00,67.2,60.8,29.96,WSW,256,11.0,11.0,80,0.00,,,0.00,LWC V2.10 B1702,2013-04-19 17:19:00,
2013-04-19 13:24:00,67.8,61.4,29.95,WSW,254,8.0,12.0,80,0.00,,,0.00,LWC V2.10 B1702,2013-04-19 17:24:00,
2013-04-19 13:29:00,68.4,61.3,29.95,SW,219,8.0,12.0,78,0.00,,,0.00,LWC V2.10 B1702,2013-04-19 17:29:00,
2013-04-19 13:34:00,68.8,62.0,29.95,WSW,242,3.0,7.0,79,0.00,,,0.00,LWC V2.10 B1702,2013-04-19 17:34:00,
2013-04-19 13:39:00,69.4,62.2,29.95,SW,223,14.0,14.0,78,0.00,,,0.00,LWC V2.10 B1702,2013-04-19 17:39:00,
2013-04-19 13:44:00,68.7,61.2,29.94,SW,235,7.0,11.0,77,0.00,,,0.00,LWC V2.10 B1702,2013-04-19 17:44:00,
2013-04-19 13:49:00,67.7,60.6,29.94,SSW,208,4.0,14.0,78,0.00,,,0.00,LWC V2.10 B1702,2013-04-19 17:49:00,
2013-04-19 13:54:00,66.9,60.5,29.94,South,180,4.0,16.0,80,0.00,,,0.00,LWC V2.10 B1702,2013-04-19 17:54:00,
2013-04-19 13:59:00,66.9,60.9,29.94,SSW,209,5.0,9.0,81,0.00,,,0.00,LWC V2.10 B1702,2013-04-19 17:59:00,
2013-04-19 14:04:00,67.1,60.7,29.93,SSW,203,4.0,13.0,80,0.00,,,0.00,LWC V2.10 B1702,2013-04-19 18:04:00,
2013-04-19 14:09:00,67.1,61.1,29.93,NW,313,13.0,14.0,81,0.00,,,0.00,LWC V2.10 B1702,2013-04-19 18:09:00,
2013-04-19 14:14:00,67.0,61.0,29.93,East,94,3.0,14.0,81,0.00,,,0.00,LWC V2.10 B1702,2013-04-19 18:14:00,
2013-04-19 14:19:00,67.4,60.7,29.93,SW,219,8.0,12.0,79,0.00,,,0.00,LWC V2.10 B1702,2013-04-19 18:19:00,
2013-04-19 14:24:00,67.4,60.3,29.93,SW,236,8.0,11.0,78,0.00,,,0.00,LWC V2.10 B1702,2013-04-19 18:24:00,
2013-04-19 14:29:00,66.8,60.4,29.92,WSW,246,8.0,12.0,80,0.00,,,0.00,LWC V2.10 B1702,2013-04-19 18:29:00,
2013-04-19 14:34:00,67.3,60.6,29.93,SW,221,7.0,13.0,79,0.00,,,0.00,LWC V2.10 B1702,2013-04-19 18:34:00,
2013-04-19 14:39:00,67.1,60.4,29.93,SW,227,8.0,16.0,79,0.00,,,0.00,LWC V2.10 B1702,2013-04-19 18:39:00,
2013-04-19 14:44:00,66.5,59.8,29.92,SW,221,2.0,7.0,79,0.00,,,0.00,LWC V2.10 B1702,2013-04-19 18:44:00,
2013-04-19 14:49:00,66.1,59.7,29.92,WSW,249,7.0,13.0,80,0.00,,,0.00,LWC V2.10 B1702,2013-04-19 18:49:00,
2013-04-19 14:54:00,65.8,59.5,29.92,WSW,247,11.0,11.0,80,0.00,,,0.00,LWC V2.10 B1702,2013-04-19 18:54:00,
2013-04-19 14:59:00,65.7,59.4,29.92,West,271,3.0,6.0,80,0.00,,,0.00,LWC V2.10 B1702,2013-04-19 18:59:00,
2013-04-19 15:04:00,66.1,60.1,29.92,WSW,252,7.0,7.0,81,0.00,,,0.00,LWC V2.10 B1702,2013-04-19 19:04:00,
2013-04-19 15:09:00,66.7,60.0,29.91,SSE,164,7.0,13.0,79,0.00,,,0.00,LWC V2.10 B1702,2013-04-19 19:09:00,
2013-04-19 15:14:00,66.4,59.7,29.91,SW,214,5.0,12.0,79,0.00,,,0.00,LWC V2.10 B1702,2013-04-19 19:14:00,
2013-04-19 15:19:00,66.1,59.7,29.91,SW,219,8.0,13.0,80,0.00,,,0.00,LWC V2.10 B1702,2013-04-19 19:19:00,
2013-04-19 15:24:00,65.8,59.5,29.90,WSW,244,9.0,14.0,80,0.00,,,0.00,LWC V2.10 B1702,2013-04-19 19:24:00,
2013-04-19 15:29:00,65.5,59.5,29.91,South,173,9.0,15.0,81,0.00,,,0.00,LWC V2.10 B1702,2013-04-19 19:29:00,
2013-04-19 15:34:00,65.3,59.7,29.90,SW,233,8.0,17.0,82,0.00,,,0.00,LWC V2.10 B1702,2013-04-19 19:34:00,
2013-04-19 15:39:00,65.4,59.8,29.89,SSW,213,7.0,12.0,82,0.00,,,0.00,LWC V2.10 B1702,2013-04-19 19:39:00,
2013-04-19 15:44:00,65.8,60.1,29.89,SSW,212,7.0,8.0,82,0.00,,,0.00,LWC V2.10 B1702,2013-04-19 19:44:00,
2013-04-19 15:49:00,66.3,60.3,29.89,WSW,239,6.0,16.0,81,0.00,,,0.00,LWC V2.10 B1702,2013-04-19 19:49:00,
2013-04-19 15:54:00,66.2,60.2,29.89,SSW,213,6.0,9.0,81,0.00,,,0.00,LWC V2.10 B1702,2013-04-19 19:54:00,
2013-04-19 15:59:00,66.0,60.0,29.89,WSW,253,8.0,8.0,81,0.00,,,0.00,LWC V2.10 B1702,2013-04-19 19:59:00,
2013-04-19 16:04:00,65.5,59.5,29.89,West,277,11.0,13.0,81,0.00,,,0.00,LWC V2.10 B1702,2013-04-19 20:04:00,
2013-04-19 16:09:00,65.0,59.4,29.88,SW,217,7.0,17.0,82,0.00,,,0.00,LWC V2.10 B1702,2013-04-19 20:09:00,
2013-04-19 16:14:00,64.8,59.5,29.87,West,263,5.0,14.0,83,0.00,,,0.00,LWC V2.10 B1702,2013-04-19 20:14:00,
2013-04-19 16:19:00,64.9,59.9,29.87,West,276,8.0,8.0,84,0.00,,,0.00,LWC V2.10 B1702,2013-04-19 20:19:00,
2013-04-19 16:24:00,65.1,59.8,29.87,SSW,211,4.0,11.0,83,0.00,,,0.00,LWC V2.10 B1702,2013-04-19 20:24:00,
2013-04-19 16:29:00,65.3,60.0,29.87,NW,318,5.0,12.0,83,0.00,,,0.00,LWC V2.10 B1702,2013-04-19 20:29:00,
2013-04-19 16:34:00,65.6,59.9,29.87,SW,230,14.0,15.0,82,0.00,,,0.00,LWC V2.10 B1702,2013-04-19 20:34:00,
2013-04-19 16:39:00,65.9,60.2,29.86,SW,222,5.0,12.0,82,0.00,,,0.00,LWC V2.10 B1702,2013-04-19 20:39:00,
2013-04-19 16:44:00,66.2,60.5,29.86,WSW,254,9.0,13.0,82,0.00,,,0.00,LWC V2.10 B1702,2013-04-19 20:44:00,
2013-04-19 16:49:00,66.2,60.5,29.86,WSW,248,8.0,17.0,82,0.00,,,0.00,LWC V2.10 B1702,2013-04-19 20:49:00,
2013-04-19 16:54:00,66.3,60.6,29.86,SW,226,6.0,11.0,82,0.00,,,0.00,LWC V2.10 B1702,2013-04-19 20:54:00,
2013-04-19 16:59:00,66.3,61.0,29.86,South,181,10.0,13.0,83,0.00,,,0.00,LWC V2.10 B1702,2013-04-19 20:59:00,
2013-04-19 17:04:00,66.5,61.2,29.85,SSW,198,5.0,13.0,83,0.00,,,0.00,LWC V2.10 B1702,2013-04-19 21:04:00,
2013-04-19 17:09:00,66.4,61.1,29.85,SW,215,13.0,14.0,83,0.00,,,0.00,LWC V2.10 B1702,2013-04-19 21:09:00,
2013-04-19 17:14:00,66.3,61.0,29.86,SSW,207,14.0,14.0,83,0.00,,,0.00,LWC V2.10 B1702,2013-04-19 21:14:00,
2013-04-19 17:19:00,66.1,60.8,29.86,West,259,7.0,14.0,83,0.00,,,0.00,LWC V2.10 B1702,2013-04-19 21:19:00,
2013-04-19 17:24:00,65.9,60.9,29.86,SW,221,4.0,13.0,84,0.00,,,0.00,LWC V2.10 B1702,2013-04-19 21:24:00,
2013-04-19 17:29:00,65.5,60.9,29.85,WSW,249,11.0,11.0,85,0.00,,,0.00,LWC V2.10 B1702,2013-04-19 21:29:00,
2013-04-19 17:34:00,65.2,60.6,29.85,SSW,205,14.0,14.0,85,0.00,,,0.00,LWC V2.10 B1702,2013-04-19 21:34:00,
2013-04-19 17:39:00,65.0,60.4,29.85,South,180,4.0,11.0,85,0.00,,,0.00,LWC V2.10 B1702,2013-04-19 21:39:00,
2013-04-19 17:44:00,64.9,60.3,29.85,SSW,204,12.0,14.0,85,0.00,,,0.00,LWC V2.10 B1702,2013-04-19 21:44:00,
2013-04-19 17:49:00,64.8,60.5,29.85,WSW,254,8.0,13.0,86,0.00,,,0.00,LWC V2.10 B1702,2013-04-19 21:49:00,
2013-04-19 17:54:00,64.6,60.3,29.84,SSW,206,11.0,14.0,86,0.00,,,0.00,LWC V2.10 B1702,2013-04-19 21:54:00,
2013-04-19 17:59:00,64.3,60.7,29.84,SW,229,6.0,13.0,88,0.00,,,0.00,LWC V2.10 B1702,2013-04-19 21:59:00,
2013-04-19 18:04:00,64.0,60.4,29.84,SSW,213,8.0,13.0,88,0.00,,,0.00,LWC V2.10 B1702,2013-04-19 22:04:00,
2013-04-19 18:09:00,63.8,60.5,29.83,WSW,254,6.0,15.0,89,0.00,,,0.00,LWC V2.10 B1702,2013-04-19 22:09:00,
2013-04-19 18:14:00,63.7,60.4,29.83,West,270,4.0,14.0,89,0.00,,,0.00,LWC V2.10 B1702,2013-04-19 22:14:00,
2013-04-19 18:19:00,63.7,60.4,29.83,SSW,211,6.0,9.0,89,0.00,,,0.00,LWC V2.10 B1702,2013-04-19 22:19:00,
2013-04-19 18:24:00,63.7,60.4,29.83,South,187,12.0,17.0,89,0.00,,,0.00,LWC V2.10 B1702,2013-04-19 22:24:00,
2013-04-19 18:29:00,63.7,60.4,29.83,WSW,244,11.0,18.0,89,0.00,,,0.00,LWC V2.10 B1702,2013-04-19 22:29:00,
2013-04-19 18:34:00,63.6,60.3,29.82,SSW,206,6.0,11.0,89,0.00,,,0.00,LWC V2.10 B1702,2013-04-19 22:34:00,
2013-04-19 18:39:00,63.6,60.3,29.83,SSW,203,7.0,16.0,89,0.00,,,0.00,LWC V2.10 B1702,2013-04-19 22:39:00,
2013-04-19 18:44:00,63.6,60.3,29.83,SW,216,12.0,12.0,89,0.00,,,0.00,LWC V2.10 B1702,2013-04-19 22:44:00,
2013-04-19 18:49:00,63.5,60.2,29.82,SW,236,4.0,16.0,89,0.00,,,0.00,LWC V2.10 B1702,2013-04-19 22:49:00,
2013-04-19 18:54:00,63.5,59.9,29.82,SSW,205,6.0,13.0,88,0.00,,,0.00,LWC V2.10 B1702,2013-04-19 22:54:00,
2013-04-19 18:59:00,63.6,60.0,29.82,WSW,248,16.0,16.0,88,0.00,,,0.00,LWC V2.10 B1702,2013-04-19 22:59:00,
2013-04-19 19:04:00,63.6,60.0,29.82,SW,223,6.0,14.0,88,0.00,,,0.00,LWC V2.10 B1702,2013-04-19 23:04:00,
2013-04-19 19:09:00,63.5,59.9,29.82,WSW,238,5.0,8.0,88,0.00,,,0.00,LWC V2.10 B1702,2013-04-19 23:09:00,
2013-04-19 19:14:00,63.4,59.8,29.82,SW,234,7.0,10.0,88,0.00,,,0.00,LWC V2.10 B1702,2013-04-19 23:14:00,
2013-04-19 19:19:00,63.4,59.8,29.83,SW,217,4.0,10.0,88,0.00,,,0.00,LWC V2.10 B1702,2013-04-19 23:19:00,
2013-04-19 19:24:00,63.3,59.4,29.83,SSW,213,9.0,15.0,87,0.00,,,0.00,LWC V2.10 B1702,2013-04-19 23:24:00,
2013-04-19 19:29:00,63.1,59.2,29.83,West,271,6.0,15.0,87,0.00,,,0.00,LWC V2.10 B1702,2013-04-19 23:29:00,
2013-04-19 19:34:00,63.1,59.2,29.82,SW,226,6.0,15.0,87,0.00,,,0.00,LWC V2.10 B1702,2013-04-19 23:34:00,
2013-04-19 19:39:00,63.1,59.5,29.82,South,189,18.0,18.0,88,0.00,,,0.00,LWC V2.10 B1702,2013-04-19 23:39:00,
2013-04-19 19:44:00,63.2,59.6,29.82,SSW,205,14.0,15.0,88,0.00,,,0.00,LWC V2.10 B1702,2013-04-19 23:44:00,
2013-04-19 19:49:00,63.4,59.8,29.82,WSW,251,9.0,18.0,88,0.00,,,0.00,LWC V2.10 B1702,2013-04-19 23:49:00,
2013-04-19 19:54:00,63.6,60.0,29.82,SW,221,7.0,13.0,88,0.00,,,0.00,LWC V2.10 B1702,2013-04-19 23:54:00,
2013-04-19 19:59:00,63.7,60.1,29.82,West,259,8.0,15.0,88,0.00,,,0.00,LWC V2.10 B1702,2013-04-19 23:59:00,
2013-04-19 20:04:00,63.8,60.2,29.82,SW,232,4.0,13.0,88,0.00,,,0.00,LWC V2.10 B1702,2013-04-20 00:04:00,
2013-04-19 20:09:00,63.8,60.2,29.82,WSW,246,3.0,16.0,88,0.00,,,0.00,LWC V2.10 B1702,2013-04-20 00:09:00,
2013-04-19 20:14:00,63.7,60.1,29.82,SSW,211,11.0,12.0,88,0.00,,,0.00,LWC V2.10 B1702,2013-04-20 00:14:00,
2013-04-19 20:19:00,63.6,60.0,29.82,WSW,250,5.0,17.0,88,0.00,,,0.00,LWC V2.10 B1702,2013-04-20 00:19:00,
2013-04-19 20:24:00,63.6,60.3,29.82,South,178,9.0,17.0,89,0.00,,,0.00,LWC V2.10 B1702,2013-04-20 00:24:00,
2013-04-19 20:29:00,63.6,60.3,29.82,SW,230,4.0,10.0,89,0.00,,,0.00,LWC V2.10 B1702,2013-04-20 00:29:00,
2013-04-19 20:34:00,63.8,60.5,29.82,South,186,14.0,15.0,89,0.00,,,0.00,LWC V2.10 B1702,2013-04-20 00:34:00,
2013-04-19 20:39:00,64.1,61.1,29.81,SSW,200,7.0,14.0,90,0.00,,,0.00,LWC V2.10 B1702,2013-04-20 00:39:00,
2013-04-19 20:44:00,64.4,61.4,29.81,WSW,239,8.0,13.0,90,0.00,,,0.00,LWC V2.10 B1702,2013-04-20 00:44:00,
2013-04-19 20:49:00,64.6,61.3,29.81,SSW,209,15.0,21.0,89,0.00,,,0.00,LWC V2.10 B1702,2013-04-20 00:49:00,
2013-04-19 20:54:00,64.8,61.5,29.81,WSW,252,5.0,11.0,89,0.00,,,0.00,LWC V2.10 B1702,2013-04-20 00:54:00,
2013-04-19 20:59:00,64.9,61.6,29.80,South,173,15.0,19.0,89,0.00,,,0.00,LWC V2.10 B1702,2013-04-20 00:59:00,
2013-04-19 21:04:00,65.0,61.7,29.80,WSW,244,10.0,15.0,89,0.00,,,0.00,LWC V2.10 B1702,2013-04-20 01:04:00,
2013-04-19 21:09:00,65.1,61.8,29.80,SE,142,7.0,13.0,89,0.00,,,0.00,LWC V2.10 B1702,2013-04-20 01:09:00,
2013-04-19 21:15:00,65.1,61.8,29.79,WSW,255,9.0,22.0,89,0.00,,,0.00,LWC V2.10 B1702,2013-04-20 01:15:00,
2013-04-19 21:20:00,65.1,61.5,29.80,West,263,18.0,18.0,88,0.00,,,0.00,LWC V2.10 B1702,2013-04-20 01:20:00,
2013-04-19 21:25:00,65.0,61.4,29.80,SW,227,8.0,15.0,88,0.00,,,0.00,LWC V2.10 B1702,2013-04-20 01:25:00,
2013-04-19 21:30:00,64.8,61.2,29.79,SW,218,12.0,23.0,88,0.00,,,0.00,LWC V2.10 B1702,2013-04-20 01:30:00,
2013-04-19 21:35:00,64.7,61.1,29.80,SW,231,18.0,18.0,88,0.00,,,0.00,LWC V2.10 B1702,2013-04-20 01:35:00,
2013-04-19 21:40:00,64.6,61.3,29.79,West,281,23.0,23.0,89,0.00,,,0.00,LWC V2.10 B1702,2013-04-20 01:40:00,
2013-04-19 21:45:00,64.6,61.3,29.79,SW,221,13.0,17.0,89,0.00,,,0.00,LWC V2.10 B1702,2013-04-20 01:45:00,
2013-04-19 21:50:00,64.7,61.4,29.79,SSW,209,14.0,14.0,89,0.00,,,0.00,LWC V2.10 B1702,2013-04-20 01:50:00,
2013-04-19 21:55:00,64.8,61.5,29.79,South,190,9.0,17.0,89,0.00,,,0.00,LWC V2.10 B1702,2013-04-20 01:55:00,
2013-04-19 22:00:00,64.8,61.5,29.79,WSW,242,14.0,18.0,89,0.00,,,0.00,LWC V2.10 B1702,2013-04-20 02:00:00,
2013-04-19 22:05:00,64.8,61.5,29.79,SW,231,10.0,13.0,89,0.00,,,0.00,LWC V2.10 B1702,2013-04-20 02:05:00,
2013-04-19 22:10:00,65.0,61.7,29.79,SW,217,15.0,22.0,89,0.00,,,0.00,LWC V2.10 B1702,2013-04-20 02:10:00,
2013-04-19 22:15:00,65.1,61.8,29.79,SSE,168,5.0,19.0,89,0.00,,,0.00,LWC V2.10 B1702,2013-04-20 02:15:00,
2013-04-19 22:20:00,65.2,61.9,29.79,SW,233,15.0,22.0,89,0.00,,,0.00,LWC V2.10 B1702,2013-04-20 02:20:00,
2013-04-19 22:25:00,65.1,61.5,29.79,South,190,9.0,13.0,88,0.00,,,0.00,LWC V2.10 B1702,2013-04-20 02:25:00,
2013-04-19 22:30:00,64.8,61.2,29.78,SW,218,9.0,18.0,88,0.00,,,0.00,LWC V2.10 B1702,2013-04-20 02:30:00,
2013-04-19 22:35:00,64.8,61.5,29.78,WSW,255,8.0,16.0,89,0.00,,,0.00,LWC V2.10 B1702,2013-04-20 02:35:00,
2013-04-19 22:40:00,64.8,61.5,29.78,SSW,212,9.0,15.0,89,0.00,,,0.00,LWC V2.10 B1702,2013-04-20 02:40:00,
2013-04-19 22:45:00,64.9,61.6,29.77,WSW,242,14.0,19.0,89,0.00,,,0.00,LWC V2.10 B1702,2013-04-20 02:45:00,
2013-04-19 22:50:00,64.9,61.6,29.77,West,269,8.0,18.0,89,0.00,,,0.00,LWC V2.10 B1702,2013-04-20 02:50:00,
2013-04-19 22:55:00,65.0,61.7,29.77,SW,221,12.0,21.0,89,0.00,,,0.00,LWC V2.10 B1702,2013-04-20 02:55:00,
2013-04-19 23:00:00,65.3,62.0,29.77,WSW,254,9.0,18.0,89,0.00,,,0.00,LWC V2.10 B1702,2013-04-20 03:00:00,
2013-04-19 23:05:00,65.6,62.3,29.77,SW,235,8.0,19.0,89,0.00,,,0.00,LWC V2.10 B1702,2013-04-20 03:05:00,
2013-04-19 23:10:00,65.6,62.3,29.77,West,266,12.0,13.0,89,0.00,,,0.00,LWC V2.10 B1702,2013-04-20 03:10:00,
2013-04-19 23:15:00,65.4,61.7,29.77,SW,221,7.0,15.0,88,0.00,,,0.00,LWC V2.10 B1702,2013-04-20 03:15:00,
2013-04-19 23:20:00,65.2,61.5,29.76,WSW,250,9.0,15.0,88,0.00,,,0.00,LWC V2.10 B1702,2013-04-20 03:20:00,
2013-04-19 23:25:00,65.2,61.9,29.75,WSW,246,5.0,15.0,89,0.00,,,0.00,LWC V2.10 B1702,2013-04-20 03:25:00,
2013-04-19 23:30:00,65.2,61.9,29.76,SSW,198,7.0,16.0,89,0.00,,,0.00,LWC V2.10 B1702,2013-04-20 03:30:00,
2013-04-19 23:35:00,65.1,61.8,29.75,SW,234,16.0,20.0,89,0.00,,,0.00,LWC V2.10 B1702,2013-04-20 03:35:00,
2013-04-19 23:40:00,65.2,61.9,29.76,SW,232,9.0,20.0,89,0.00,,,0.00,LWC V2.10 B1702,2013-04-20 03:40:00,
2013-04-19 23:45:00,65.2,61.9,29.76,SW,218,7.0,14.0,89,0.00,,,0.00,LWC V2.10 B1702,2013-04-20 03:45:00,
2013-04-19 23:50:00,65.2,61.9,29.75,West,271,11.0,22.0,89,0.00,,,0.00,LWC V2.10 B1702,2013-04-20 03:50:00,
2013-04-19 23:55:00,65.1,61.5,29.75,WSW,250,12.0,18.0,88,0.00,,,0.00,LWC V2.10 B1702,2013-04-20 03:55:00,